createdAt,value
2022-12-06T00:00:04.106Z,943.1
2022-12-06T00:01:47.834Z,941.8
2022-12-06T00:03:31.503Z,935.2
2022-12-06T00:05:15.214Z,929.8
2022-12-06T00:06:58.909Z,927
2022-12-06T00:08:42.618Z,926.3
2022-12-06T00:10:26.310Z,922.7
2022-12-06T00:12:10.012Z,920.7
2022-12-06T00:13:53.740Z,918.7
2022-12-06T00:15:37.418Z,909.4
2022-12-06T00:17:21.117Z,906.8
2022-12-06T00:19:04.803Z,903.8
2022-12-06T00:20:48.677Z,899.3
2022-12-06T00:22:32.219Z,895.6
2022-12-06T00:24:15.918Z,890.9
2022-12-06T00:25:59.610Z,888
2022-12-06T00:27:43.329Z,886.1
2022-12-06T00:29:27.035Z,885.2
2022-12-06T00:31:10.706Z,882.1
2022-12-06T00:32:54.410Z,880.5
2022-12-06T00:34:38.128Z,877.2
2022-12-06T00:36:21.833Z,873.9
2022-12-06T00:39:49.222Z,869.5
2022-12-06T00:41:32.921Z,867.1
2022-12-06T00:45:00.323Z,860.9
2022-12-06T00:46:44.025Z,856.6
2022-12-06T00:48:27.792Z,853.1
2022-12-06T00:50:11.438Z,852.9
2022-12-06T00:51:55.152Z,851.2
2022-12-06T00:53:38.829Z,849.6
2022-12-06T00:55:22.532Z,847.9
2022-12-06T00:57:06.236Z,844.7
2022-12-06T00:58:49.974Z,841.1
2022-12-06T01:00:33.648Z,838.1
2022-12-06T01:02:17.345Z,833.3
2022-12-06T01:04:01.061Z,827.1
2022-12-06T01:05:44.748Z,823
2022-12-06T01:07:28.456Z,818.9
2022-12-06T01:09:12.155Z,815
2022-12-06T01:10:55.897Z,811.8
2022-12-06T01:12:39.554Z,810.9
2022-12-06T01:14:23.264Z,805.5
2022-12-06T01:16:06.989Z,804.7
2022-12-06T01:17:50.661Z,804.2
2022-12-06T01:19:34.375Z,808.3
2022-12-06T01:21:18.064Z,804.5
2022-12-06T01:23:01.773Z,803
2022-12-06T01:24:45.475Z,801.6
2022-12-06T01:26:29.229Z,797.7
2022-12-06T01:28:12.880Z,794.6
2022-12-06T01:29:56.614Z,789.4
2022-12-06T01:31:40.295Z,787.7
2022-12-06T01:33:23.995Z,786.6
2022-12-06T01:35:07.685Z,784.6
2022-12-06T01:36:51.413Z,782.2
2022-12-06T01:38:35.105Z,778.9
2022-12-06T01:40:18.830Z,777.7
2022-12-06T01:42:02.497Z,772.8
2022-12-06T01:43:46.199Z,770
2022-12-06T01:45:29.923Z,768.3
2022-12-06T01:47:13.623Z,766.3
2022-12-06T01:48:57.331Z,764.5
2022-12-06T01:50:41.030Z,762
2022-12-06T01:52:24.732Z,758.3
2022-12-06T01:54:08.428Z,754.8
2022-12-06T01:55:52.141Z,753.9
2022-12-06T01:57:35.849Z,751.9
2022-12-06T01:59:19.552Z,749.4
2022-12-06T02:01:03.234Z,748.2
2022-12-06T02:02:46.940Z,743.7
2022-12-06T02:04:30.641Z,743.6
2022-12-06T02:06:14.365Z,742.5
2022-12-06T02:07:58.071Z,740.4
2022-12-06T02:09:41.757Z,736.7
2022-12-06T02:11:25.448Z,734.6
2022-12-06T02:13:09.231Z,731.9
2022-12-06T02:14:52.861Z,730.8
2022-12-06T02:16:36.559Z,727.4
2022-12-06T02:18:20.250Z,729.9
2022-12-06T02:21:47.687Z,727.3
2022-12-06T02:23:31.362Z,722.6
2022-12-06T02:26:58.756Z,714.2
2022-12-06T02:28:42.528Z,711.7
2022-12-06T02:30:26.159Z,710.7
2022-12-06T02:32:09.877Z,708.1
2022-12-06T02:33:53.618Z,708.7
2022-12-06T02:35:37.292Z,706.4
2022-12-06T02:37:20.983Z,705.1
2022-12-06T02:39:04.674Z,703.7
2022-12-06T02:40:48.390Z,704.1
2022-12-06T02:42:32.069Z,700.4
2022-12-06T02:44:15.776Z,702.1
2022-12-06T02:45:59.489Z,705.4
2022-12-06T02:47:43.187Z,702.5
2022-12-06T02:49:26.882Z,701.2
2022-12-06T02:51:10.567Z,700.3
2022-12-06T02:52:54.284Z,698.4
2022-12-06T02:54:37.992Z,695.7
2022-12-06T02:56:21.779Z,692.5
2022-12-06T02:58:05.397Z,690.6
2022-12-06T02:59:49.091Z,690.7
2022-12-06T03:01:32.838Z,688.2
2022-12-06T03:03:16.506Z,687.3
2022-12-06T03:05:00.189Z,687
2022-12-06T03:06:43.902Z,689.1
2022-12-06T03:08:27.596Z,688.4
2022-12-06T03:10:11.299Z,687
2022-12-06T03:11:54.997Z,682.5
2022-12-06T03:13:38.678Z,680.3
2022-12-06T03:15:22.405Z,679.3
2022-12-06T03:17:06.098Z,677.1
2022-12-06T03:18:49.787Z,676.5
2022-12-06T03:22:17.196Z,675.2
2022-12-06T03:24:00.921Z,670.2
2022-12-06T03:25:44.596Z,666.9
2022-12-06T03:27:28.313Z,665.5
2022-12-06T03:29:12.021Z,662.8
2022-12-06T03:30:55.711Z,662.6
2022-12-06T03:32:39.412Z,659
2022-12-06T03:34:23.126Z,659
2022-12-06T03:36:06.829Z,663.2
2022-12-06T03:37:50.524Z,661.6
2022-12-06T03:39:34.232Z,663.7
2022-12-06T03:41:17.936Z,665.3
2022-12-06T03:43:01.638Z,668.8
2022-12-06T03:44:45.350Z,666
2022-12-06T03:46:29.047Z,663.1
2022-12-06T03:48:12.757Z,666.2
2022-12-06T03:49:56.460Z,667.5
2022-12-06T03:51:40.145Z,665.8
2022-12-06T03:53:23.866Z,664.2
2022-12-06T03:55:07.559Z,660.2
2022-12-06T03:56:51.265Z,659.8
2022-12-06T03:58:34.958Z,658.7
2022-12-06T04:00:18.663Z,660.1
2022-12-06T04:03:46.083Z,661.3
2022-12-06T04:05:29.792Z,657.8
2022-12-06T04:07:13.481Z,653.5
2022-12-06T04:08:57.192Z,653.1
2022-12-06T04:10:40.901Z,655.8
2022-12-06T04:12:24.614Z,656.5
2022-12-06T04:14:08.294Z,652.3
2022-12-06T04:15:52.000Z,652.6
2022-12-06T04:17:35.697Z,652
2022-12-06T04:19:19.395Z,651.3
2022-12-06T04:21:03.106Z,648.8
2022-12-06T04:22:46.798Z,646.5
2022-12-06T04:24:30.522Z,642.4
2022-12-06T04:26:14.224Z,638.7
2022-12-06T04:27:57.951Z,638.5
2022-12-06T04:29:41.623Z,638.5
2022-12-06T04:31:25.324Z,638.2
2022-12-06T04:33:09.053Z,638.6
2022-12-06T04:34:52.744Z,639.8
2022-12-06T04:36:36.446Z,637.1
2022-12-06T04:38:20.158Z,634.6
2022-12-06T04:40:03.840Z,633.8
2022-12-06T04:41:47.548Z,630.9
2022-12-06T04:43:31.241Z,630.2
2022-12-06T04:45:14.951Z,631
2022-12-06T04:46:58.663Z,629.4
2022-12-06T04:48:42.351Z,624.6
2022-12-06T04:50:26.083Z,626.7
2022-12-06T04:52:09.759Z,627.8
2022-12-06T04:53:53.465Z,625.8
2022-12-06T04:55:37.161Z,624.8
2022-12-06T04:57:20.886Z,624.2
2022-12-06T04:59:04.570Z,623.5
2022-12-06T05:00:48.288Z,624.7
2022-12-06T05:02:31.986Z,621.9
2022-12-06T05:04:15.685Z,617.6
2022-12-06T05:05:59.396Z,620.4
2022-12-06T05:07:43.130Z,621
2022-12-06T05:09:26.786Z,622
2022-12-06T05:12:54.191Z,619.2
2022-12-06T05:14:37.898Z,616.9
2022-12-06T05:16:21.591Z,614.6
2022-12-06T05:18:05.312Z,617.5
2022-12-06T05:19:49.012Z,618
2022-12-06T05:21:32.716Z,618.8
2022-12-06T05:23:16.429Z,619.6
2022-12-06T05:25:00.119Z,618.2
2022-12-06T05:26:43.850Z,618.2
2022-12-06T05:28:27.533Z,616
2022-12-06T05:30:11.227Z,612.4
2022-12-06T05:31:54.921Z,607.3
2022-12-06T05:33:38.633Z,602.7
2022-12-06T05:35:22.325Z,603
2022-12-06T05:37:06.013Z,602
2022-12-06T05:38:49.723Z,600.1
2022-12-06T05:40:33.433Z,598.1
2022-12-06T05:42:17.131Z,598.3
2022-12-06T05:44:00.832Z,600.2
2022-12-06T05:45:44.545Z,602.2
2022-12-06T05:47:28.253Z,601.6
2022-12-06T05:49:11.927Z,602.4
2022-12-06T05:50:55.641Z,599.5
2022-12-06T05:52:39.336Z,600.5
2022-12-06T05:54:23.043Z,601.9
2022-12-06T05:56:06.765Z,599.9
2022-12-06T05:57:50.459Z,599.8
2022-12-06T05:59:34.153Z,598.3
2022-12-06T06:01:17.864Z,598.8
2022-12-06T06:03:01.552Z,598.4
2022-12-06T06:04:45.318Z,597.6
2022-12-06T06:06:29.031Z,593.8
2022-12-06T06:08:12.658Z,591.7
2022-12-06T06:09:56.361Z,590.9
2022-12-06T06:11:40.072Z,591.2
2022-12-06T06:13:23.886Z,591
2022-12-06T06:15:07.449Z,592.7
2022-12-06T06:16:51.175Z,591
2022-12-06T06:20:18.571Z,592
2022-12-06T06:22:02.270Z,589.4
2022-12-06T06:23:45.961Z,588.6
2022-12-06T06:25:29.665Z,590.4
2022-12-06T06:27:13.372Z,591.4
2022-12-06T06:28:57.063Z,590.4
2022-12-06T06:30:40.778Z,590.3
2022-12-06T06:32:24.499Z,591
2022-12-06T06:34:08.185Z,592.1
2022-12-06T06:35:51.869Z,590.7
2022-12-06T06:37:35.573Z,592.4
2022-12-06T06:39:19.284Z,595.7
2022-12-06T06:41:03.005Z,596
2022-12-06T06:42:46.684Z,594.6
2022-12-06T06:44:30.400Z,591.6
2022-12-06T06:46:14.086Z,592.1
2022-12-06T06:47:57.904Z,596
2022-12-06T06:49:41.491Z,596.6
2022-12-06T06:51:25.186Z,595
2022-12-06T06:53:08.880Z,596.1
2022-12-06T06:54:52.604Z,599.3
2022-12-06T06:56:36.277Z,602.1
2022-12-06T06:58:19.978Z,601
2022-12-06T07:00:03.687Z,598
2022-12-06T07:01:47.393Z,597.6
2022-12-06T07:03:31.074Z,600.5
2022-12-06T07:05:14.781Z,602
2022-12-06T07:06:58.490Z,602.6
2022-12-06T07:08:42.199Z,602.9
2022-12-06T07:10:25.880Z,605.3
2022-12-06T07:12:09.592Z,602.4
2022-12-06T07:13:53.287Z,600.7
2022-12-06T07:15:37.000Z,601.8
2022-12-06T07:17:20.717Z,600.1
2022-12-06T07:19:04.402Z,595.9
2022-12-06T07:20:48.116Z,595.4
2022-12-06T07:22:31.809Z,592.7
2022-12-06T07:24:15.501Z,592.8
2022-12-06T07:25:59.197Z,591.2
2022-12-06T07:27:42.914Z,590.9
2022-12-06T07:29:26.612Z,590.4
2022-12-06T07:31:10.347Z,590.2
2022-12-06T07:32:54.005Z,590.4
2022-12-06T07:34:37.783Z,590.1
2022-12-06T07:36:21.477Z,587.9
2022-12-06T07:38:05.109Z,586.1
2022-12-06T07:39:48.905Z,584.7
2022-12-06T07:41:32.502Z,584.5
2022-12-06T07:43:16.205Z,585
2022-12-06T07:44:59.911Z,582.6
2022-12-06T07:46:43.604Z,580.8
2022-12-06T07:48:27.342Z,579.9
2022-12-06T07:50:11.031Z,578.4
2022-12-06T07:51:54.740Z,579.5
2022-12-06T07:53:38.491Z,579.2
2022-12-06T07:55:22.127Z,579.5
2022-12-06T07:57:05.837Z,579.7
2022-12-06T07:58:49.551Z,580.7
2022-12-06T08:00:33.272Z,582
2022-12-06T08:02:16.947Z,581.6
2022-12-06T08:04:00.647Z,581.4
2022-12-06T08:05:44.369Z,582.5
2022-12-06T08:07:28.076Z,581.3
2022-12-06T08:09:11.768Z,581.3
2022-12-06T08:10:55.479Z,579.9
2022-12-06T08:12:39.175Z,577.9
2022-12-06T08:14:22.899Z,579.6
2022-12-06T08:16:06.564Z,576.3
2022-12-06T08:17:50.277Z,574.5
2022-12-06T08:19:33.989Z,574.9
2022-12-06T08:21:17.696Z,577.1
2022-12-06T08:23:01.397Z,577.9
2022-12-06T08:24:45.095Z,578.8
2022-12-06T08:26:28.821Z,580
2022-12-06T08:28:12.493Z,577.8
2022-12-06T08:29:56.191Z,575.6
2022-12-06T08:31:39.902Z,571.8
2022-12-06T08:35:07.307Z,571.8
2022-12-06T08:36:51.025Z,573.7
2022-12-06T08:38:34.719Z,576.2
2022-12-06T08:40:18.422Z,575.1
2022-12-06T08:42:02.105Z,572.6
2022-12-06T08:43:45.819Z,569.2
2022-12-06T08:45:29.525Z,568.8
2022-12-06T08:47:13.234Z,571.2
2022-12-06T08:48:56.922Z,570.5
2022-12-06T08:50:40.602Z,565.9
2022-12-06T08:52:24.319Z,563.1
2022-12-06T08:54:08.028Z,563.1
2022-12-06T08:55:51.717Z,565.1
2022-12-06T08:57:35.417Z,566.7
2022-12-06T08:59:19.185Z,566.5
2022-12-06T09:01:02.813Z,568.9
2022-12-06T09:02:46.533Z,568.4
2022-12-06T09:04:30.222Z,570.6
2022-12-06T09:06:13.995Z,574.4
2022-12-06T09:07:57.626Z,574.5
2022-12-06T09:09:41.331Z,573.5
2022-12-06T09:11:25.052Z,578.6
2022-12-06T09:13:08.734Z,593.2
2022-12-06T09:14:52.442Z,604.2
2022-12-06T09:16:36.135Z,608.7
2022-12-06T09:18:19.860Z,610.4
2022-12-06T09:20:03.545Z,611.1
2022-12-06T09:21:47.255Z,614.1
2022-12-06T09:23:30.974Z,619.1
2022-12-06T09:25:14.653Z,629.2
2022-12-06T09:26:58.366Z,640
2022-12-06T09:28:42.049Z,648.5
2022-12-06T09:30:25.785Z,663.1
2022-12-06T09:32:09.473Z,677.1
2022-12-06T09:37:20.588Z,700.3
2022-12-06T09:39:04.274Z,710.6
2022-12-06T09:40:47.969Z,715.4
2022-12-06T09:42:31.677Z,722.1
2022-12-06T09:44:15.389Z,734.3
2022-12-06T09:45:59.074Z,745.4
2022-12-06T09:47:42.782Z,753.4
2022-12-06T09:49:26.540Z,755.7
2022-12-06T09:51:10.188Z,756.8
2022-12-06T09:53:00.873Z,750.1
2022-12-06T09:54:37.604Z,757.4
2022-12-06T09:56:21.303Z,764
2022-12-06T09:58:04.999Z,770.7
2022-12-06T09:59:48.678Z,778
2022-12-06T10:01:32.550Z,779.6
2022-12-06T10:03:16.100Z,779.9
2022-12-06T10:04:59.809Z,781.2
2022-12-06T10:06:43.523Z,785.2
2022-12-06T10:08:27.199Z,786
2022-12-06T10:10:10.896Z,787.1
2022-12-06T10:11:54.592Z,788.8
2022-12-06T10:13:38.294Z,791.7
2022-12-06T10:15:22.004Z,794.6
2022-12-06T10:17:05.707Z,792
2022-12-06T10:18:49.404Z,785.7
2022-12-06T10:20:33.086Z,780.4
2022-12-06T10:22:16.869Z,778.7
2022-12-06T10:24:00.508Z,780.1
2022-12-06T10:25:44.204Z,781.7
2022-12-06T10:27:27.916Z,793.2
2022-12-06T10:29:11.594Z,802.2
2022-12-06T10:30:55.319Z,807.6
2022-12-06T10:32:39.012Z,809.1
2022-12-06T10:34:22.789Z,809.5
2022-12-06T10:36:06.563Z,812.1
2022-12-06T10:37:50.307Z,816.5
2022-12-06T10:39:33.813Z,819.4
2022-12-06T10:41:17.537Z,824.9
2022-12-06T10:43:01.200Z,832.9
2022-12-06T10:44:44.916Z,835.2
2022-12-06T10:46:28.621Z,835.3
2022-12-06T10:48:12.305Z,836
2022-12-06T10:49:56.012Z,833.7
2022-12-06T10:51:39.717Z,827.3
2022-12-06T10:53:23.421Z,818.8
2022-12-06T10:55:07.101Z,810.6
2022-12-06T10:56:50.806Z,806.8
2022-12-06T10:58:34.516Z,801.5
2022-12-06T11:00:18.217Z,797.7
2022-12-06T11:02:01.910Z,798.2
2022-12-06T11:03:45.624Z,798.4
2022-12-06T11:05:29.329Z,798.3
2022-12-06T11:07:13.029Z,800.8
2022-12-06T11:08:56.723Z,803.7
2022-12-06T11:10:40.426Z,806.2
2022-12-06T11:12:24.154Z,813.8
2022-12-06T11:14:07.842Z,845.9
2022-12-06T11:15:51.552Z,852.6
2022-12-06T11:17:35.262Z,855.6
2022-12-06T11:19:18.975Z,852.8
2022-12-06T11:21:02.654Z,851.9
2022-12-06T11:22:46.355Z,851.9
2022-12-06T11:24:30.071Z,865.5
2022-12-06T11:26:13.753Z,878.8
2022-12-06T11:27:57.463Z,876.3
2022-12-06T11:29:41.150Z,881.3
2022-12-06T11:31:24.867Z,889.1
2022-12-06T11:33:08.574Z,960.1
2022-12-06T11:34:52.258Z,984.6
2022-12-06T11:36:35.967Z,996.9
2022-12-06T11:38:19.676Z,1007.3
2022-12-06T11:40:03.395Z,1015.7
2022-12-06T11:41:47.078Z,1019.7
2022-12-06T11:43:30.761Z,1018.9
2022-12-06T11:45:14.465Z,1023.4
2022-12-06T11:46:58.182Z,1022.1
2022-12-06T11:48:41.863Z,1022.9
2022-12-06T11:50:25.584Z,1027.5
2022-12-06T11:52:09.271Z,1034.6
2022-12-06T11:53:52.997Z,1037
2022-12-06T11:55:36.679Z,1049.1
2022-12-06T11:57:20.396Z,1060.8
2022-12-06T11:59:04.093Z,1070.6
2022-12-06T12:00:47.799Z,1077.1
2022-12-06T12:02:31.481Z,1084.5
2022-12-06T12:04:15.188Z,1095
2022-12-06T12:05:58.879Z,1101.4
2022-12-06T12:07:42.596Z,1101
2022-12-06T12:09:26.293Z,1093
2022-12-06T12:11:09.991Z,1082.4
2022-12-06T12:12:53.710Z,1070.6
2022-12-06T12:14:37.413Z,1061.6
2022-12-06T12:16:21.111Z,1050.4
2022-12-06T12:18:04.810Z,1044.7
2022-12-06T12:19:48.525Z,1039.1
2022-12-06T12:21:32.230Z,1037
2022-12-06T12:23:15.930Z,1035.8
2022-12-06T12:24:59.628Z,1039.5
2022-12-06T12:26:43.339Z,1040.5
2022-12-06T12:28:27.033Z,1043.9
2022-12-06T12:30:10.735Z,1044
2022-12-06T12:31:54.433Z,1044.5
2022-12-06T12:33:38.121Z,1048.1
2022-12-06T12:35:21.846Z,1050.9
2022-12-06T12:37:05.553Z,1049.9
2022-12-06T12:38:49.236Z,1050.7
2022-12-06T12:40:32.921Z,1047.1
2022-12-06T12:42:16.643Z,1043.6
2022-12-06T12:44:00.340Z,1041.9
2022-12-06T12:45:44.038Z,1039.4
2022-12-06T12:47:27.743Z,1039.7
2022-12-06T12:49:11.441Z,1039.1
2022-12-06T12:50:55.151Z,1037.2
2022-12-06T12:52:38.964Z,1031.5
2022-12-06T12:54:22.537Z,1028.6
2022-12-06T12:56:06.287Z,1026.8
2022-12-06T12:57:49.957Z,1027
2022-12-06T12:59:33.661Z,1025.7
2022-12-06T13:01:17.378Z,1025
2022-12-06T13:03:01.111Z,1022
2022-12-06T13:04:44.796Z,1021.4
2022-12-06T13:06:28.474Z,1019.6
2022-12-06T13:08:12.178Z,1020.8
2022-12-06T13:09:55.879Z,1021.6
2022-12-06T13:11:39.572Z,1018.2
2022-12-06T13:13:23.291Z,1017.3
2022-12-06T13:15:07.000Z,1011.4
2022-12-06T13:16:50.698Z,1012.4
2022-12-06T13:18:34.403Z,1009.5
2022-12-06T13:20:18.089Z,1008.8
2022-12-06T13:22:01.784Z,1005.2
2022-12-06T13:23:45.480Z,1002.9
2022-12-06T13:25:29.204Z,999.3
2022-12-06T13:27:12.913Z,996.1
2022-12-06T13:28:56.572Z,998.2
2022-12-06T13:30:40.295Z,1010.8
2022-12-06T13:32:24.007Z,1031.8
2022-12-06T13:34:07.715Z,1033.7
2022-12-06T13:35:51.379Z,1036.2
2022-12-06T13:37:35.086Z,1043.7
2022-12-06T13:39:18.804Z,1044.2
2022-12-06T13:41:02.538Z,1046
2022-12-06T13:42:46.203Z,1045.6
2022-12-06T13:44:29.888Z,998.1
2022-12-06T13:46:13.599Z,709.6
2022-12-06T13:47:57.299Z,578.2
2022-12-06T13:49:41.012Z,640.3
2022-12-06T13:51:24.730Z,739.1
2022-12-06T13:53:08.433Z,775.4
2022-12-06T13:54:52.121Z,793.7
2022-12-06T13:56:35.825Z,803.6
2022-12-06T13:58:19.516Z,812.9
2022-12-06T14:00:03.230Z,814.3
2022-12-06T14:01:46.982Z,814.9
2022-12-06T14:03:30.636Z,818
2022-12-06T14:05:14.322Z,817.7
2022-12-06T14:06:58.023Z,814.1
2022-12-06T14:08:41.722Z,810.8
2022-12-06T14:10:25.432Z,809.5
2022-12-06T14:12:09.113Z,804.7
2022-12-06T14:13:52.843Z,797.6
2022-12-06T14:15:36.544Z,797.7
2022-12-06T14:17:20.236Z,801.8
2022-12-06T14:19:03.928Z,803.9
2022-12-06T14:20:47.635Z,807.9
2022-12-06T14:22:31.347Z,810.4
2022-12-06T14:24:15.069Z,812.8
2022-12-06T14:25:58.743Z,816.5
2022-12-06T14:27:42.470Z,817.1
2022-12-06T14:29:26.160Z,819.4
2022-12-06T14:31:09.882Z,826
2022-12-06T14:32:53.554Z,835.8
2022-12-06T14:34:37.289Z,847.8
2022-12-06T14:36:20.979Z,858.7
2022-12-06T14:38:04.746Z,866.6
2022-12-06T14:39:48.394Z,873.1
2022-12-06T14:41:32.080Z,877.7
2022-12-06T14:43:15.780Z,887.9
2022-12-06T14:44:59.485Z,895.5
2022-12-06T14:46:43.205Z,904.2
2022-12-06T14:48:26.889Z,917.1
2022-12-06T14:50:10.661Z,926.8
2022-12-06T14:51:54.308Z,932.5
2022-12-06T14:53:37.985Z,943.5
2022-12-06T14:55:21.691Z,958.6
2022-12-06T14:57:05.400Z,960.1
2022-12-06T14:58:49.091Z,965.3
2022-12-06T15:00:32.805Z,967.9
2022-12-06T15:02:16.510Z,988
2022-12-06T15:04:00.241Z,999.5
2022-12-06T15:05:43.913Z,1002.4
2022-12-06T15:07:27.611Z,1004.3
2022-12-06T15:09:11.318Z,1009
2022-12-06T15:10:55.028Z,1015.3
2022-12-06T15:12:38.717Z,1020.9
2022-12-06T15:14:22.431Z,1026
2022-12-06T15:16:06.122Z,1032.3
2022-12-06T15:17:49.827Z,1039.6
2022-12-06T15:19:33.539Z,1046
2022-12-06T15:21:17.237Z,1054.1
2022-12-06T15:23:00.976Z,1053.9
2022-12-06T15:24:44.643Z,1052.9
2022-12-06T15:26:28.357Z,1051.5
2022-12-06T15:28:12.055Z,1045.9
2022-12-06T15:29:55.780Z,1046
2022-12-06T15:31:39.455Z,1046.5
2022-12-06T15:33:23.176Z,1042.7
2022-12-06T15:35:06.893Z,1042.7
2022-12-06T15:36:50.587Z,1043.6
2022-12-06T15:38:34.265Z,1042.6
2022-12-06T15:40:17.978Z,1045
2022-12-06T15:42:01.697Z,1054.7
2022-12-06T15:43:45.386Z,1067.6
2022-12-06T15:45:29.087Z,1078.8
2022-12-06T15:47:12.785Z,1087
2022-12-06T15:48:56.514Z,1093.1
2022-12-06T15:50:40.176Z,1096.8
2022-12-06T15:52:23.897Z,1101.2
2022-12-06T15:54:07.617Z,1100.3
2022-12-06T15:55:51.290Z,1100.5
2022-12-06T15:57:34.995Z,1105.4
2022-12-06T15:59:18.687Z,1109.7
2022-12-06T16:01:02.413Z,1112.8
2022-12-06T16:02:46.225Z,1113.2
2022-12-06T16:04:29.863Z,1114.6
2022-12-06T16:06:13.490Z,1119.9
2022-12-06T16:07:57.204Z,1121.6
2022-12-06T16:09:40.931Z,1123.5
2022-12-06T16:11:24.602Z,1121.8
2022-12-06T16:13:08.321Z,1118.9
2022-12-06T16:14:52.048Z,1118.9
2022-12-06T16:16:35.715Z,1116.4
2022-12-06T16:18:19.403Z,1117.4
2022-12-06T16:20:03.109Z,1132.5
2022-12-06T16:21:46.822Z,1129.3
2022-12-06T16:23:30.520Z,1133.2
2022-12-06T16:25:14.198Z,1133.3
2022-12-06T16:26:57.909Z,1135.9
2022-12-06T16:28:41.608Z,1137.2
2022-12-06T16:30:25.312Z,1137.9
2022-12-06T16:32:09.031Z,1134.2
2022-12-06T16:33:52.753Z,1129.6
2022-12-06T16:35:36.425Z,1126.4
2022-12-06T16:37:20.266Z,1123.8
2022-12-06T16:39:03.819Z,1122.8
2022-12-06T16:40:47.540Z,1126.4
2022-12-06T16:42:31.213Z,1128.8
2022-12-06T16:44:14.919Z,1132.2
2022-12-06T16:45:58.622Z,1138.3
2022-12-06T16:47:42.338Z,1144.7
2022-12-06T16:49:26.030Z,1147
2022-12-06T16:51:09.742Z,1146.4
2022-12-06T16:52:53.442Z,1143.7
2022-12-06T16:54:37.138Z,1144.2
2022-12-06T16:56:20.846Z,1141.4
2022-12-06T16:58:04.580Z,1136.1
2022-12-06T16:59:48.262Z,1138.6
2022-12-06T17:01:31.959Z,1140.6
2022-12-06T17:03:15.670Z,1134
2022-12-06T17:04:59.372Z,1133.8
2022-12-06T17:06:43.074Z,1138.3
2022-12-06T17:08:26.752Z,1139
2022-12-06T17:10:10.461Z,1140.5
2022-12-06T17:11:54.171Z,1143
2022-12-06T17:13:37.877Z,1145
2022-12-06T17:15:21.586Z,1145.4
2022-12-06T17:17:05.270Z,1146.9
2022-12-06T17:18:48.982Z,1144.9
2022-12-06T17:20:32.685Z,1140.7
2022-12-06T17:22:16.372Z,1143.2
2022-12-06T17:24:00.155Z,1142
2022-12-06T17:25:43.821Z,1141.8
2022-12-06T17:27:27.490Z,1141.7
2022-12-06T17:29:11.161Z,1145.2
2022-12-06T17:30:54.859Z,1149.1
2022-12-06T17:32:38.575Z,1146.7
2022-12-06T17:34:22.287Z,1145.2
2022-12-06T17:36:05.969Z,1143.1
2022-12-06T17:37:49.691Z,1137.7
2022-12-06T17:39:33.389Z,1135.6
2022-12-06T17:41:17.087Z,1135.7
2022-12-06T17:43:00.783Z,1135.4
2022-12-06T17:44:44.488Z,1129
2022-12-06T17:46:28.186Z,1126.7
2022-12-06T17:48:11.903Z,1126.6
2022-12-06T17:49:55.598Z,1129.9
2022-12-06T17:51:39.293Z,1127.3
2022-12-06T17:53:22.994Z,1126.4
2022-12-06T17:55:06.715Z,1125
2022-12-06T17:56:50.400Z,1125.6
2022-12-06T17:58:34.089Z,1123.8
2022-12-06T18:00:17.815Z,1117.9
2022-12-06T18:02:01.536Z,1113.8
2022-12-06T18:03:45.201Z,1110
2022-12-06T18:05:29.027Z,1105.6
2022-12-06T18:07:12.771Z,1098
2022-12-06T18:08:56.482Z,1091.8
2022-12-06T18:10:40.140Z,1088.9
2022-12-06T18:12:23.972Z,1082.6
2022-12-06T18:14:07.587Z,1081.4
2022-12-06T18:15:51.288Z,1080.8
2022-12-06T18:17:35.022Z,1078.9
2022-12-06T18:19:18.567Z,1075
2022-12-06T18:21:02.396Z,1078
2022-12-06T18:22:46.095Z,1077
2022-12-06T18:26:13.421Z,1069.7
2022-12-06T18:27:57.215Z,1069.6
2022-12-06T18:29:40.934Z,1068.9
2022-12-06T18:31:24.422Z,1065.8
2022-12-06T18:33:08.297Z,1060.6
2022-12-06T18:34:51.952Z,1056
2022-12-06T18:36:35.664Z,1055.2
2022-12-06T18:38:19.434Z,1054.9
2022-12-06T18:40:03.043Z,1051.3
2022-12-06T18:41:46.864Z,1050.4
2022-12-06T18:43:30.494Z,1052.3
2022-12-06T18:45:14.222Z,1052.7
2022-12-06T18:46:57.898Z,1049.5
2022-12-06T18:48:41.609Z,1045.5
2022-12-06T18:50:25.347Z,1045
2022-12-06T18:52:09.014Z,1045.5
2022-12-06T18:53:52.707Z,1046.9
2022-12-06T18:55:36.475Z,1045.7
2022-12-06T18:57:20.124Z,1046.5
2022-12-06T18:59:03.847Z,1048.8
2022-12-06T19:00:47.543Z,1050.5
2022-12-06T19:02:31.203Z,1053.9
2022-12-06T19:04:15.045Z,1054.4
2022-12-06T19:05:58.598Z,1047.3
2022-12-06T19:07:42.274Z,1046.6
2022-12-06T19:09:26.091Z,1048
2022-12-06T19:11:09.727Z,1050.5
2022-12-06T19:12:53.422Z,1051.4
2022-12-06T19:14:37.203Z,1054.1
2022-12-06T19:16:20.818Z,1056.6
2022-12-06T19:18:04.488Z,1056.3
2022-12-06T19:19:48.182Z,1059.3
2022-12-06T19:21:31.951Z,1057.8
2022-12-06T19:23:15.614Z,1057.6
2022-12-06T19:24:59.161Z,1055.7
2022-12-06T19:26:42.934Z,1052.1
2022-12-06T19:28:26.645Z,1051.2
2022-12-06T19:30:10.434Z,1047.4
2022-12-06T19:31:54.128Z,1049.6
2022-12-06T19:33:37.739Z,1050.6
2022-12-06T19:35:21.496Z,1048.5
2022-12-06T19:37:05.218Z,1051.7
2022-12-06T19:38:48.868Z,1054.3
2022-12-06T19:40:32.496Z,1058.1
2022-12-06T19:42:16.369Z,1060.7
2022-12-06T19:43:59.879Z,1063.4
2022-12-06T19:45:43.704Z,1061.5
2022-12-06T19:47:27.378Z,1060.6
2022-12-06T19:49:11.123Z,1061.9
2022-12-06T19:50:54.777Z,1061.6
2022-12-06T19:52:38.617Z,1059.1
2022-12-06T19:54:22.247Z,1059.5
2022-12-06T19:56:05.929Z,1059.3
2022-12-06T19:57:49.586Z,1060.5
2022-12-06T19:59:33.375Z,1060
2022-12-06T20:01:17.029Z,1056.8
2022-12-06T20:03:00.737Z,1055.6
2022-12-06T20:04:44.370Z,1056.9
2022-12-06T20:06:28.130Z,1059.3
2022-12-06T20:08:11.775Z,1059.7
2022-12-06T20:09:55.540Z,1058
2022-12-06T20:11:39.387Z,1063.2
2022-12-06T20:13:22.898Z,1069
2022-12-06T20:15:06.642Z,1073.2
2022-12-06T20:16:50.236Z,1075.3
2022-12-06T20:18:33.953Z,1074
2022-12-06T20:20:17.840Z,1073.6
2022-12-06T20:22:01.480Z,1076
2022-12-06T20:23:45.079Z,1075.6
2022-12-06T20:25:28.881Z,1074.7
2022-12-06T20:27:12.563Z,1076
2022-12-06T20:28:56.159Z,1079.6
2022-12-06T20:30:39.948Z,1080
2022-12-06T20:32:23.701Z,1081.2
2022-12-06T20:34:07.339Z,1080.7
2022-12-06T20:35:51.096Z,1078.5
2022-12-06T20:37:34.764Z,1074.2
2022-12-06T20:39:18.368Z,1073.5
2022-12-06T20:41:02.140Z,1076.4
2022-12-06T20:42:45.941Z,1076.9
2022-12-06T20:44:29.542Z,1078.9
2022-12-06T20:46:13.180Z,1084.9
2022-12-06T20:47:56.865Z,1087.1
2022-12-06T20:49:40.686Z,1089.3
2022-12-06T20:51:24.256Z,1088.2
2022-12-06T20:53:08.008Z,1090
2022-12-06T20:54:51.811Z,1089.6
2022-12-06T20:56:35.469Z,1091.7
2022-12-06T20:58:19.235Z,1092.6
2022-12-06T21:00:02.772Z,1090.4
2022-12-06T21:01:46.728Z,1093.6
2022-12-06T21:03:30.267Z,1094
2022-12-06T21:05:13.894Z,1095
2022-12-06T21:06:57.658Z,1096.3
2022-12-06T21:08:41.288Z,1096.8
2022-12-06T21:10:25.068Z,1099.9
2022-12-06T21:12:08.804Z,1102.3
2022-12-06T21:13:52.457Z,1104.6
2022-12-06T21:15:36.099Z,1100.1
2022-12-06T21:17:19.834Z,1094.9
2022-12-06T21:19:03.520Z,1095
2022-12-06T21:20:47.208Z,1093.6
2022-12-06T21:22:30.895Z,1096.7
2022-12-06T21:24:14.698Z,1099.5
2022-12-06T21:25:58.348Z,1102.4
2022-12-06T21:27:42.189Z,1103.6
2022-12-06T21:29:25.775Z,1101.8
2022-12-06T21:31:09.535Z,1101.5
2022-12-06T21:32:53.074Z,1103.2
2022-12-06T21:34:36.869Z,1104.7
2022-12-06T21:36:20.665Z,1100.6
2022-12-06T21:38:04.293Z,1095.2
2022-12-06T21:39:48.031Z,1091.8
2022-12-06T21:41:31.735Z,1091.4
2022-12-06T21:43:15.384Z,1090.8
2022-12-06T21:44:59.042Z,1088.7
2022-12-06T21:46:42.689Z,1087.6
2022-12-06T21:48:26.449Z,1084.8
2022-12-06T21:50:10.161Z,1086.1
2022-12-06T21:53:37.534Z,1085.1
2022-12-06T21:55:21.318Z,1083.1
2022-12-06T21:57:05.026Z,1080.5
2022-12-06T21:58:48.620Z,1083.1
2022-12-06T22:00:32.301Z,1083.4
2022-12-06T22:02:16.115Z,1081.1
2022-12-06T22:03:59.789Z,1078.7
2022-12-06T22:05:43.426Z,1081.4
2022-12-06T22:07:27.178Z,1086.5
2022-12-06T22:09:10.993Z,1090
2022-12-06T22:10:54.672Z,1092.5
2022-12-06T22:12:38.304Z,1091.5
2022-12-06T22:14:22.028Z,1093
2022-12-06T22:16:05.732Z,1094.5
2022-12-06T22:17:49.388Z,1092.8
2022-12-06T22:19:33.139Z,1091.5
2022-12-06T22:21:16.742Z,1092.5
2022-12-06T22:23:00.489Z,1092.7
2022-12-06T22:24:44.291Z,1089.8
2022-12-06T22:26:28.023Z,1092.7
2022-12-06T22:28:11.653Z,1089.8